Time;durP1;ratioP1;P1;durP2;ratioP2;P2;SDS_P1;SDS_P2;PMS_P1;PMS_P2;Temp;Humidity;BMP_temperature;BMP_pressure;BME280_temperature;BME280_humidity;BME280_pressure;Samples;Min_cycle;Max_cycle;Signal;HPM_P1;HPM_P2
2023/08/24 00:00:20;;;;;;;17.90;17.10;;;23.70;99.90;;;;;;4903697;29;20490;-85
2023/08/24 00:02:49;;;;;;;18.10;17.10;;;23.70;99.90;;;;;;4924652;29;20468;-87
2023/08/24 00:05:23;;;;;;;17.53;16.83;;;23.60;99.90;;;;;;4905926;29;21697;-89
2023/08/24 00:07:56;;;;;;;17.57;16.57;;;23.50;99.90;;;;;;4907448;29;20517;-86
2023/08/24 00:10:28;;;;;;;17.63;16.50;;;23.50;99.90;;;;;;4909711;29;20510;-85
2023/08/24 00:12:57;;;;;;;17.40;16.60;;;23.50;99.90;;;;;;4906855;29;20469;-85
2023/08/24 00:15:30;;;;;;;17.70;16.87;;;23.50;99.90;;;;;;4906018;29;21032;-85
2023/08/24 00:18:02;;;;;;;17.03;16.43;;;23.50;99.90;;;;;;4906363;29;20948;-85
2023/08/24 00:20:37;;;;;;;18.00;17.00;;;23.40;99.90;;;;;;4912143;29;20558;-87
2023/08/24 00:23:06;;;;;;;18.30;17.40;;;23.40;99.90;;;;;;4906421;29;20983;-86
2023/08/24 00:25:37;;;;;;;18.77;17.87;;;23.40;99.90;;;;;;4905289;29;20449;-85
2023/08/24 00:28:09;;;;;;;18.80;18.00;;;23.30;99.90;;;;;;4907124;29;20506;-85
2023/08/24 00:30:42;;;;;;;18.67;17.77;;;23.30;99.90;;;;;;4906038;29;20501;-87
2023/08/24 00:33:10;;;;;;;19.30;18.10;;;23.30;99.90;;;;;;4910866;29;20468;-86
2023/08/24 00:35:41;;;;;;;19.80;18.90;;;23.30;99.90;;;;;;4907053;29;20470;-86
2023/08/24 00:38:17;;;;;;;18.20;17.40;;;23.30;99.90;;;;;;4908467;29;21018;-85
2023/08/24 00:40:49;;;;;;;18.80;18.00;;;23.30;99.90;;;;;;4920302;29;20453;-85
2023/08/24 00:43:23;;;;;;;18.97;17.87;;;23.30;99.90;;;;;;4907249;29;20453;-85
2023/08/24 00:46:01;;;;;;;19.23;18.30;;;23.20;99.90;;;;;;4905373;29;20446;-85
2023/08/24 00:48:30;;;;;;;18.83;17.93;;;23.20;99.90;;;;;;4906960;29;20948;-85
2023/08/24 00:51:03;;;;;;;18.40;17.60;;;23.20;99.90;;;;;;4905470;29;20460;-86
2023/08/24 00:53:38;;;;;;;19.17;18.27;;;23.10;99.90;;;;;;4905370;29;20493;-85
2023/08/24 00:56:09;;;;;;;19.10;18.00;;;23.10;99.90;;;;;;4917878;29;20918;-87
2023/08/24 00:58:39;;;;;;;19.03;18.13;;;23.10;99.90;;;;;;4904096;29;20462;-85
2023/08/24 01:01:12;;;;;;;17.53;16.83;;;23.20;99.90;;;;;;4906086;29;20478;-84
2023/08/24 01:03:43;;;;;;;18.90;17.90;;;23.20;99.90;;;;;;4905077;29;20461;-85
2023/08/24 01:06:17;;;;;;;18.27;17.57;;;23.20;99.90;;;;;;4902153;29;20466;-88
2023/08/24 01:08:49;;;;;;;17.50;16.80;;;23.20;99.90;;;;;;4906022;29;20482;-85
2023/08/24 01:11:33;;;;;;;17.97;17.10;;;23.20;99.90;;;;;;4906128;29;20984;-85
2023/08/24 01:14:15;;;;;;;17.80;16.90;;;23.10;99.90;;;;;;4905557;29;20462;-86
2023/08/24 01:16:50;;;;;;;17.60;16.80;;;23.10;99.90;;;;;;4904772;29;20455;-86
2023/08/24 01:19:37;;;;;;;18.70;17.70;;;23.10;99.90;;;;;;4904555;29;20465;-85
2023/08/24 01:22:12;;;;;;;18.10;17.00;;;23.00;99.90;;;;;;4904064;29;20478;-85
2023/08/24 01:24:48;;;;;;;18.37;17.57;;;23.00;99.90;;;;;;4904530;29;20449;-85
2023/08/24 01:27:22;;;;;;;18.73;17.70;;;22.90;99.90;;;;;;4904129;29;20485;-87
2023/08/24 01:29:56;;;;;;;18.03;17.23;;;22.80;99.90;;;;;;4905001;29;21145;-85
2023/08/24 01:32:28;;;;;;;17.90;17.10;;;22.90;99.90;;;;;;4904399;29;20457;-85
2023/08/24 01:35:02;;;;;;;18.70;17.80;;;22.90;99.90;;;;;;4905611;28;20499;-85
2023/08/24 01:37:30;;;;;;;18.60;17.70;;;22.90;99.90;;;;;;4906208;29;20852;-85
2023/08/24 01:40:14;;;;;;;18.13;17.13;;;22.90;99.90;;;;;;4904803;29;20479;-85
2023/08/24 01:42:52;;;;;;;19.43;18.33;;;22.80;99.90;;;;;;4907907;29;20871;-85
2023/08/24 01:45:29;;;;;;;18.37;17.57;;;22.90;99.90;;;;;;4909106;29;20955;-85
2023/08/24 01:48:03;;;;;;;18.20;17.20;;;22.90;99.90;;;;;;4905318;29;20458;-85
2023/08/24 01:50:33;;;;;;;18.70;17.90;;;22.80;99.90;;;;;;4910132;29;20478;-84
2023/08/24 01:53:05;;;;;;;19.70;18.53;;;22.70;99.90;;;;;;4905794;29;20462;-85
2023/08/24 01:55:37;;;;;;;18.60;17.80;;;22.70;99.90;;;;;;4904886;29;20508;-85
2023/08/24 01:58:07;;;;;;;18.83;17.93;;;22.70;99.90;;;;;;4906740;29;20458;-86
2023/08/24 02:00:36;;;;;;;19.80;18.73;;;22.60;99.90;;;;;;4902277;29;20490;-85
2023/08/24 02:03:11;;;;;;;20.23;19.33;;;22.60;99.90;;;;;;4905142;29;20956;-85
2023/08/24 02:05:40;;;;;;;19.40;18.17;;;22.60;99.90;;;;;;4904806;29;20452;-85
2023/08/24 02:08:08;;;;;;;18.93;18.13;;;22.60;99.90;;;;;;4903993;29;20691;-86
2023/08/24 02:10:39;;;;;;;18.83;18.03;;;22.60;99.90;;;;;;4903540;29;20482;-86
2023/08/24 02:13:13;;;;;;;19.13;18.33;;;22.60;99.90;;;;;;4906648;29;20450;-88
2023/08/24 02:15:43;;;;;;;19.57;18.47;;;22.60;99.90;;;;;;4903727;29;20486;-85
2023/08/24 02:18:15;;;;;;;19.67;18.77;;;22.60;99.90;;;;;;4907020;29;20465;-86
2023/08/24 02:20:46;;;;;;;18.63;17.63;;;22.50;99.90;;;;;;4907862;29;20483;-88
2023/08/24 02:23:14;;;;;;;18.80;18.00;;;22.50;99.90;;;;;;4909734;29;20469;-85
2023/08/24 02:25:44;;;;;;;19.10;18.17;;;22.50;99.90;;;;;;4909250;29;20458;-84
2023/08/24 02:28:17;;;;;;;18.60;17.80;;;22.50;99.90;;;;;;4906917;29;20458;-84
2023/08/24 02:30:45;;;;;;;17.80;17.07;;;22.50;99.90;;;;;;4905707;29;20474;-86
2023/08/24 02:33:20;;;;;;;18.70;17.60;;;22.50;99.90;;;;;;4904782;29;20753;-84
2023/08/24 02:35:51;;;;;;;18.40;17.40;;;22.40;99.90;;;;;;4902698;29;20529;-86
2023/08/24 02:38:23;;;;;;;18.57;17.67;;;22.40;99.90;;;;;;4907303;29;20957;-85
2023/08/24 02:41:02;;;;;;;18.50;17.53;;;22.40;99.90;;;;;;4904304;29;20483;-85
2023/08/24 02:43:35;;;;;;;17.97;17.17;;;22.40;99.90;;;;;;4906632;29;20451;-85
2023/08/24 02:46:12;;;;;;;18.00;17.20;;;22.50;99.90;;;;;;4905504;29;20859;-84
2023/08/24 02:48:42;;;;;;;19.20;18.17;;;22.50;99.90;;;;;;4906594;29;20457;-86
2023/08/24 02:51:14;;;;;;;18.37;17.37;;;22.50;99.90;;;;;;4902914;29;20466;-85
2023/08/24 02:53:47;;;;;;;19.23;18.30;;;22.40;99.90;;;;;;4904761;29;20476;-85
2023/08/24 02:56:15;;;;;;;18.83;17.90;;;22.50;99.90;;;;;;4905784;29;20573;-85
2023/08/24 02:58:48;;;;;;;19.27;18.43;;;22.40;99.90;;;;;;4907310;29;20482;-86
2023/08/24 03:01:21;;;;;;;20.57;19.57;;;22.40;99.90;;;;;;4905377;29;20560;-86
2023/08/24 03:03:56;;;;;;;19.33;18.50;;;22.40;99.90;;;;;;4904296;29;20581;-85
2023/08/24 03:06:27;;;;;;;18.30;17.50;;;22.50;99.90;;;;;;4909972;29;20470;-84
2023/08/24 03:08:56;;;;;;;18.77;17.80;;;22.50;99.90;;;;;;4907115;29;20529;-85
2023/08/24 03:11:26;;;;;;;18.20;17.50;;;22.40;99.90;;;;;;4906391;29;20886;-85
2023/08/24 03:13:58;;;;;;;18.63;17.60;;;22.40;99.90;;;;;;4904837;29;20450;-88
2023/08/24 03:16:29;;;;;;;18.47;17.67;;;22.30;99.90;;;;;;4904553;29;20478;-86
2023/08/24 03:19:04;;;;;;;19.10;17.97;;;22.30;99.90;;;;;;4902271;29;20490;-85
2023/08/24 03:21:44;;;;;;;18.30;17.33;;;22.40;99.90;;;;;;4904786;29;21028;-85
2023/08/24 03:24:15;;;;;;;19.40;18.30;;;22.40;99.90;;;;;;4904140;29;20770;-85
2023/08/24 03:26:49;;;;;;;18.83;17.93;;;22.40;99.90;;;;;;4906800;29;20465;-85
2023/08/24 03:29:22;;;;;;;18.83;17.93;;;22.40;99.90;;;;;;4903563;29;20572;-85
2023/08/24 03:31:53;;;;;;;19.43;18.13;;;22.40;99.90;;;;;;4903905;29;20482;-84
2023/08/24 03:34:27;;;;;;;18.67;17.77;;;22.40;99.90;;;;;;4903031;29;20988;-85
2023/08/24 03:36:58;;;;;;;19.10;18.10;;;22.30;99.90;;;;;;4902405;29;20482;-85
2023/08/24 03:39:26;;;;;;;18.30;17.50;;;22.30;99.90;;;;;;4903556;29;20546;-85
2023/08/24 03:41:55;;;;;;;18.70;17.67;;;22.30;99.90;;;;;;4905367;29;20450;-84
2023/08/24 03:44:28;;;;;;;18.67;17.70;;;22.30;99.90;;;;;;4899821;29;20523;-87
2023/08/24 03:46:59;;;;;;;18.20;17.40;;;22.30;99.90;;;;;;4903435;29;20506;-86
2023/08/24 03:49:33;;;;;;;17.83;17.13;;;22.30;99.90;;;;;;4906706;29;20480;-85
2023/08/24 03:52:06;;;;;;;18.20;17.47;;;22.30;99.90;;;;;;4899832;29;20454;-88
2023/08/24 03:54:41;;;;;;;18.10;17.40;;;22.30;99.90;;;;;;4903982;29;20478;-84
2023/08/24 03:57:13;;;;;;;18.20;17.30;;;22.30;99.90;;;;;;4902557;29;20485;-85
2023/08/24 03:59:46;;;;;;;19.40;18.30;;;22.30;99.90;;;;;;4901468;29;20496;-84
2023/08/24 04:02:14;;;;;;;18.93;18.07;;;22.30;99.90;;;;;;4901932;29;20850;-85
2023/08/24 04:04:43;;;;;;;19.37;18.37;;;22.30;99.90;;;;;;4902523;29;20458;-85
2023/08/24 04:07:11;;;;;;;19.23;18.20;;;22.30;99.90;;;;;;4901853;29;20494;-86
2023/08/24 04:09:48;;;;;;;18.87;17.87;;;22.30;99.90;;;;;;4906570;29;20480;-86
2023/08/24 04:12:19;;;;;;;19.70;18.70;;;22.30;99.90;;;;;;4902800;29;20455;-85
2023/08/24 04:14:49;;;;;;;20.20;18.83;;;22.30;99.90;;;;;;4901697;29;20553;-85
2023/08/24 04:17:21;;;;;;;19.50;18.70;;;22.40;99.90;;;;;;4904160;29;20570;-89
2023/08/24 04:19:52;;;;;;;18.50;17.80;;;22.40;99.90;;;;;;4904267;29;20479;-85
2023/08/24 04:22:23;;;;;;;19.50;18.57;;;22.40;99.90;;;;;;4902123;29;20552;-84
2023/08/24 04:24:53;;;;;;;19.57;18.50;;;22.30;1.00;;;;;;4916185;29;20466;-86
2023/08/24 04:27:24;;;;;;;19.37;18.47;;;22.30;99.90;;;;;;4902616;29;21085;-85
2023/08/24 04:29:55;;;;;;;20.03;18.93;;;22.40;99.90;;;;;;4905494;29;20470;-86
2023/08/24 04:32:26;;;;;;;20.07;19.13;;;22.30;99.90;;;;;;4904550;29;20452;-85
2023/08/24 04:34:55;;;;;;;19.93;18.83;;;22.30;99.90;;;;;;4906654;29;20454;-84
2023/08/24 04:37:27;;;;;;;18.90;18.10;;;22.30;99.90;;;;;;4907231;29;20905;-85
2023/08/24 04:40:07;;;;;;;19.27;18.47;;;22.40;99.90;;;;;;4905763;29;20489;-88
2023/08/24 04:42:35;;;;;;;19.53;18.63;;;22.40;1.00;;;;;;4907592;29;20558;-85
2023/08/24 04:45:08;;;;;;;19.60;18.60;;;22.40;1.00;;;;;;4909466;29;20991;-89
2023/08/24 04:47:40;;;;;;;19.53;18.53;;;22.40;99.90;;;;;;4906840;29;20450;-87
2023/08/24 04:50:16;;;;;;;20.20;18.63;;;22.40;99.90;;;;;;4906196;29;20491;-85
2023/08/24 04:52:45;;;;;;;20.67;19.47;;;22.40;99.90;;;;;;4907886;29;20454;-85
2023/08/24 04:55:14;;;;;;;19.80;18.80;;;22.40;99.90;;;;;;4912791;29;20480;-89
2023/08/24 04:57:45;;;;;;;20.00;19.00;;;22.40;99.90;;;;;;4911830;29;20486;-85
2023/08/24 05:00:25;;;;;;;19.47;18.57;;;22.30;99.90;;;;;;4906137;29;20488;-84
2023/08/24 05:02:57;;;;;;;19.60;18.70;;;22.40;1.00;;;;;;4924523;29;20461;-85
2023/08/24 05:05:26;;;;;;;18.83;17.80;;;22.30;99.90;;;;;;4908324;29;20569;-85
2023/08/24 05:07:55;;;;;;;20.13;19.20;;;22.30;1.00;;;;;;4906717;29;20449;-85
2023/08/24 05:10:24;;;;;;;20.03;18.93;;;22.40;99.90;;;;;;4907724;29;20486;-85
2023/08/24 05:12:54;;;;;;;19.20;18.13;;;22.40;1.00;;;;;;4906474;29;21059;-88
2023/08/24 05:15:32;;;;;;;19.77;18.67;;;22.40;1.00;;;;;;4907259;29;20458;-85
2023/08/24 05:18:02;;;;;;;19.63;18.70;;;22.40;1.00;;;;;;4907451;29;20501;-85
2023/08/24 05:20:31;;;;;;;19.53;18.43;;;22.40;1.00;;;;;;4908192;29;20474;-85
2023/08/24 05:23:02;;;;;;;18.90;17.90;;;22.50;1.00;;;;;;4905259;29;20458;-87
2023/08/24 05:25:34;;;;;;;19.20;18.30;;;22.50;1.00;;;;;;4907734;29;20459;-89
2023/08/24 05:28:03;;;;;;;18.87;17.93;;;22.50;99.90;;;;;;4905282;29;21023;-85
2023/08/24 05:30:35;;;;;;;20.20;19.30;;;22.60;99.90;;;;;;4907653;29;20509;-85
2023/08/24 05:33:06;;;;;;;20.43;19.43;;;22.60;99.90;;;;;;4908323;29;20458;-84
2023/08/24 05:35:39;;;;;;;19.67;18.60;;;22.70;99.90;;;;;;4910391;29;20517;-87
2023/08/24 05:38:13;;;;;;;19.73;18.50;;;22.70;99.90;;;;;;4903909;29;20490;-85
2023/08/24 05:40:42;;;;;;;18.90;17.77;;;22.70;99.90;;;;;;4904444;29;21009;-85
2023/08/24 05:43:14;;;;;;;19.60;18.50;;;22.70;99.90;;;;;;4905536;29;20980;-87
2023/08/24 05:45:49;;;;;;;20.07;18.67;;;22.70;99.90;;;;;;4907260;29;20881;-85
2023/08/24 05:48:20;;;;;;;19.77;18.50;;;22.70;99.90;;;;;;4921810;29;20449;-84
2023/08/24 05:50:51;;;;;;;21.33;19.83;;;22.80;99.90;;;;;;4906891;29;20541;-86
2023/08/24 05:53:23;;;;;;;19.77;18.67;;;22.80;99.90;;;;;;4906399;29;20455;-84
2023/08/24 05:55:58;;;;;;;20.60;18.57;;;22.70;99.90;;;;;;4904348;29;20903;-86
2023/08/24 05:58:33;;;;;;;19.37;18.47;;;22.70;99.90;;;;;;4906056;29;20577;-85
2023/08/24 06:01:03;;;;;;;19.80;18.90;;;22.80;99.90;;;;;;4910071;29;20489;-86
2023/08/24 06:03:41;;;;;;;19.13;18.40;;;22.80;99.90;;;;;;4905233;29;20449;-84
2023/08/24 06:06:10;;;;;;;18.77;17.77;;;22.90;99.90;;;;;;4909065;29;20669;-86
2023/08/24 06:08:41;;;;;;;19.97;18.73;;;22.90;99.90;;;;;;4906209;29;20454;-85
2023/08/24 06:11:14;;;;;;;20.30;19.10;;;23.00;99.90;;;;;;4908103;29;20457;-85
2023/08/24 06:13:47;;;;;;;19.00;18.20;;;23.10;99.90;;;;;;4903992;29;21058;-85
2023/08/24 06:16:22;;;;;;;19.20;18.20;;;23.10;99.90;;;;;;4904491;29;20548;-85
2023/08/24 06:18:53;;;;;;;18.77;17.77;;;23.10;99.90;;;;;;4904160;29;20578;-86
2023/08/24 06:21:21;;;;;;;18.87;18.07;;;23.20;99.90;;;;;;4908473;29;20560;-85
2023/08/24 06:23:52;;;;;;;19.17;18.03;;;23.20;99.90;;;;;;4907539;29;20452;-86
2023/08/24 06:26:23;;;;;;;18.40;17.40;;;23.20;99.90;;;;;;4921287;29;20560;-84
2023/08/24 06:28:58;;;;;;;19.03;18.03;;;23.20;99.90;;;;;;4905187;29;20470;-85
2023/08/24 06:31:32;;;;;;;18.50;17.60;;;23.20;99.90;;;;;;4905036;29;20457;-86
2023/08/24 06:34:04;;;;;;;19.40;18.33;;;23.20;99.90;;;;;;4902927;29;20480;-84
2023/08/24 06:36:34;;;;;;;19.00;17.97;;;23.30;99.90;;;;;;4902450;29;20470;-85
2023/08/24 06:39:08;;;;;;;19.70;18.53;;;23.30;99.90;;;;;;4904005;29;20560;-84
2023/08/24 06:41:36;;;;;;;19.90;18.90;;;23.40;99.90;;;;;;4904962;29;20442;-85
2023/08/24 06:44:08;;;;;;;19.73;18.60;;;23.40;99.90;;;;;;4917498;29;20560;-87
2023/08/24 06:46:41;;;;;;;20.57;19.13;;;23.40;99.90;;;;;;4904137;29;20470;-87
2023/08/24 06:49:12;;;;;;;21.80;20.07;;;23.40;99.90;;;;;;4901163;29;20466;-86
2023/08/24 06:51:40;;;;;;;21.00;19.67;;;23.40;99.90;;;;;;4902662;29;20464;-85
2023/08/24 06:54:11;;;;;;;20.83;19.63;;;23.40;99.90;;;;;;4905181;29;20456;-85
2023/08/24 06:56:43;;;;;;;21.33;19.90;;;23.50;99.90;;;;;;4904922;29;20442;-85
2023/08/24 06:59:15;;;;;;;20.60;19.27;;;23.50;99.90;;;;;;4906339;29;21528;-85
2023/08/24 07:01:48;;;;;;;22.10;20.40;;;23.50;99.90;;;;;;4913557;29;20996;-85
2023/08/24 07:04:19;;;;;;;20.53;19.17;;;23.50;99.90;;;;;;4918804;29;21055;-85
2023/08/24 07:06:51;;;;;;;19.60;18.50;;;23.60;99.90;;;;;;4901364;29;20944;-85
2023/08/24 07:09:20;;;;;;;20.07;19.00;;;23.60;99.90;;;;;;4902245;29;20561;-85
2023/08/24 07:11:49;;;;;;;21.33;20.10;;;23.50;99.90;;;;;;4904191;29;20971;-85
2023/08/24 07:14:19;;;;;;;21.83;20.07;;;23.50;99.90;;;;;;4904244;29;20462;-85
2023/08/24 07:16:54;;;;;;;20.23;18.80;;;23.50;99.90;;;;;;4904575;29;21041;-85
2023/08/24 07:19:27;;;;;;;20.30;19.20;;;23.60;99.90;;;;;;4904849;29;20564;-86
2023/08/24 07:22:01;;;;;;;20.80;19.57;;;23.60;99.90;;;;;;4903529;29;20478;-84
2023/08/24 07:24:36;;;;;;;19.70;18.80;;;23.70;99.90;;;;;;4903658;29;20485;-85
2023/08/24 07:27:16;;;;;;;20.40;19.40;;;23.90;99.90;;;;;;4904355;29;20457;-84
2023/08/24 07:29:46;;;;;;;19.50;18.50;;;24.10;99.90;;;;;;4917431;28;20481;-85
2023/08/24 07:32:19;;;;;;;19.40;18.60;;;24.40;99.90;;;;;;4904300;29;20478;-87
2023/08/24 07:34:53;;;;;;;20.20;19.20;;;24.70;99.90;;;;;;4904398;29;20524;-84
2023/08/24 07:37:23;;;;;;;20.47;19.37;;;24.70;99.90;;;;;;4902549;29;20453;-84
2023/08/24 07:39:54;;;;;;;18.80;18.00;;;24.80;99.90;;;;;;4904302;29;21067;-84
2023/08/24 07:42:25;;;;;;;19.20;18.20;;;25.00;99.90;;;;;;4918775;29;20993;-85
2023/08/24 07:44:56;;;;;;;18.03;17.33;;;25.00;99.90;;;;;;4904243;29;20486;-85
2023/08/24 07:47:30;;;;;;;18.20;17.17;;;25.00;99.90;;;;;;4906053;29;20465;-78
2023/08/24 07:50:01;;;;;;;18.13;17.33;;;25.00;99.90;;;;;;4901338;29;20514;-78
2023/08/24 07:52:38;;;;;;;18.63;17.63;;;25.00;99.90;;;;;;4906741;29;20457;-87
2023/08/24 07:55:11;;;;;;;19.23;18.27;;;25.00;99.90;;;;;;4905370;29;20458;-86
2023/08/24 07:57:45;;;;;;;18.83;17.90;;;25.10;99.90;;;;;;4901113;29;20477;-87
2023/08/24 08:00:14;;;;;;;18.63;17.73;;;25.20;99.90;;;;;;4905493;29;20505;-86
2023/08/24 08:02:49;;;;;;;18.87;17.90;;;25.30;99.90;;;;;;4903048;29;20516;-89
2023/08/24 08:05:17;;;;;;;19.30;17.73;;;25.40;99.90;;;;;;4905351;29;20864;-86
2023/08/24 08:07:46;;;;;;;17.67;17.07;;;25.50;99.90;;;;;;4905303;29;20462;-86
2023/08/24 08:10:20;;;;;;;19.00;18.10;;;25.50;99.90;;;;;;4910870;29;20470;-86
2023/08/24 08:12:49;;;;;;;18.60;17.80;;;25.60;99.90;;;;;;4909497;29;20465;-88
2023/08/24 08:15:17;;;;;;;19.13;18.00;;;25.70;99.90;;;;;;4907916;29;20462;-87
2023/08/24 08:17:53;;;;;;;18.80;17.90;;;25.80;99.90;;;;;;4913400;29;20445;-87
2023/08/24 08:20:22;;;;;;;18.17;17.53;;;25.80;99.90;;;;;;4906274;29;20517;-86
2023/08/24 08:22:53;;;;;;;19.60;18.70;;;25.90;99.90;;;;;;4922759;29;20466;-87
2023/08/24 08:25:24;;;;;;;18.90;18.00;;;26.00;99.90;;;;;;4914676;29;20603;-87
2023/08/24 08:27:58;;;;;;;18.60;17.90;;;26.00;99.90;;;;;;4905547;29;20558;-88
2023/08/24 08:30:29;;;;;;;18.67;17.67;;;26.20;99.90;;;;;;4924013;29;20470;-87
2023/08/24 08:32:59;;;;;;;19.20;18.40;;;26.20;99.90;;;;;;4909365;29;20447;-86
2023/08/24 08:35:28;;;;;;;19.27;18.47;;;26.30;99.90;;;;;;4907841;29;20550;-87
2023/08/24 08:38:00;;;;;;;18.50;17.70;;;26.30;99.90;;;;;;4904637;29;20454;-89
2023/08/24 08:40:32;;;;;;;18.70;17.73;;;26.40;99.90;;;;;;4907848;29;20538;-87
2023/08/24 08:43:03;;;;;;;19.57;18.43;;;26.40;99.90;;;;;;4909014;29;20458;-86
2023/08/24 08:45:33;;;;;;;18.93;18.13;;;26.50;99.90;;;;;;4906642;29;20464;-87
2023/08/24 08:48:05;;;;;;;18.50;17.73;;;26.60;99.90;;;;;;4906203;29;20457;-87
2023/08/24 08:50:35;;;;;;;18.67;17.77;;;26.70;99.90;;;;;;4908105;29;20474;-86
2023/08/24 08:53:08;;;;;;;18.20;17.23;;;26.80;99.90;;;;;;4904140;29;20466;-88
2023/08/24 08:55:37;;;;;;;19.37;18.30;;;26.90;99.90;;;;;;4911227;29;20459;-87
2023/08/24 08:58:09;;;;;;;18.90;18.10;;;27.00;99.90;;;;;;4905731;29;20473;-85
2023/08/24 09:00:38;;;;;;;18.00;17.40;;;27.00;99.90;;;;;;4907840;29;21001;-87
2023/08/24 09:03:12;;;;;;;18.80;18.00;;;27.10;99.90;;;;;;4923209;29;20461;-87
2023/08/24 09:05:48;;;;;;;18.50;17.70;;;27.10;99.90;;;;;;4905591;29;20489;-87
2023/08/24 09:08:22;;;;;;;19.03;18.23;;;27.20;99.90;;;;;;4906046;29;20545;-88
2023/08/24 09:10:54;;;;;;;17.97;17.27;;;27.20;99.90;;;;;;4907447;29;20478;-86
2023/08/24 09:13:25;;;;;;;18.13;17.40;;;27.20;99.90;;;;;;4905805;29;20466;-88
2023/08/24 09:15:54;;;;;;;18.40;17.40;;;27.20;99.90;;;;;;4910386;29;20503;-87
2023/08/24 09:18:36;;;;;;;18.97;18.17;;;27.30;99.90;;;;;;4906310;29;21030;-88
2023/08/24 09:21:11;;;;;;;18.73;17.80;;;27.30;99.90;;;;;;4907191;29;20501;-89
2023/08/24 09:23:44;;;;;;;18.93;18.10;;;27.40;99.90;;;;;;4906052;29;20462;-86
2023/08/24 09:26:17;;;;;;;18.43;17.70;;;27.40;99.90;;;;;;4908747;29;20446;-87
2023/08/24 09:28:46;;;;;;;18.77;17.97;;;27.40;99.90;;;;;;4908667;29;20460;-86
2023/08/24 09:31:20;;;;;;;19.80;18.80;;;27.50;99.90;;;;;;4905276;29;20451;-87
2023/08/24 09:33:55;;;;;;;19.37;18.47;;;27.60;99.90;;;;;;4908033;29;20447;-86
2023/08/24 09:36:26;;;;;;;18.87;17.97;;;27.60;99.90;;;;;;4904212;29;21068;-87
2023/08/24 09:38:57;;;;;;;18.47;17.67;;;27.70;99.90;;;;;;4907004;29;20573;-86
2023/08/24 09:41:38;;;;;;;19.00;18.20;;;27.80;99.90;;;;;;4906151;29;20453;-86
2023/08/24 09:44:08;;;;;;;19.13;18.23;;;27.90;99.90;;;;;;4907063;29;20545;-87
2023/08/24 09:46:41;;;;;;;18.87;17.87;;;27.90;99.90;;;;;;4903751;29;20462;-87
2023/08/24 09:49:16;;;;;;;18.83;18.03;;;27.90;99.90;;;;;;4906303;29;20474;-87
2023/08/24 09:51:46;;;;;;;18.67;17.97;;;28.00;99.90;;;;;;4904600;29;21064;-88
2023/08/24 09:54:22;;;;;;;18.80;18.00;;;28.10;99.90;;;;;;4904137;29;20473;-88
2023/08/24 09:56:59;;;;;;;19.63;18.73;;;28.20;99.90;;;;;;4919449;29;20560;-88
2023/08/24 09:59:30;;;;;;;18.97;18.00;;;28.20;99.90;;;;;;4902764;29;20497;-87
2023/08/24 10:02:06;;;;;;;19.00;18.10;;;28.30;99.90;;;;;;4904230;29;20465;-89
2023/08/24 10:04:42;;;;;;;19.37;18.47;;;28.40;99.90;;;;;;4902909;29;20831;-89
2023/08/24 10:07:15;;;;;;;19.33;18.43;;;28.40;99.90;;;;;;4903942;29;20459;-86
2023/08/24 10:09:53;;;;;;;19.47;18.67;;;28.50;99.90;;;;;;4911477;29;20492;-87
2023/08/24 10:12:28;;;;;;;20.20;19.30;;;28.50;99.90;;;;;;4919890;29;20454;-88
2023/08/24 10:15:02;;;;;;;20.20;19.23;;;28.60;99.90;;;;;;4904850;29;21141;-86
2023/08/24 10:17:32;;;;;;;18.90;18.10;;;28.70;99.90;;;;;;4904568;29;20458;-87
2023/08/24 10:20:08;;;;;;;20.20;19.20;;;28.70;99.90;;;;;;4903723;29;20497;-87
2023/08/24 10:22:39;;;;;;;20.00;19.10;;;28.80;99.90;;;;;;4905701;29;20506;-87
2023/08/24 10:25:09;;;;;;;20.50;19.60;;;28.90;99.90;;;;;;4902961;29;20450;-86
2023/08/24 10:27:43;;;;;;;20.77;19.67;;;28.90;99.90;;;;;;4910253;29;20455;-87
2023/08/24 10:30:16;;;;;;;20.00;19.00;;;28.80;99.90;;;;;;4905654;29;20489;-88
2023/08/24 10:32:53;;;;;;;21.30;20.23;;;28.90;99.90;;;;;;4904094;29;20490;-87
2023/08/24 10:35:26;;;;;;;20.77;19.57;;;28.90;99.90;;;;;;4910216;29;20467;-86
2023/08/24 10:38:00;;;;;;;21.00;19.90;;;28.90;99.90;;;;;;4905096;29;20447;-87
2023/08/24 10:40:36;;;;;;;21.17;19.97;;;28.90;99.90;;;;;;4904198;29;21027;-87
2023/08/24 10:43:07;;;;;;;21.43;20.00;;;28.90;99.90;;;;;;4902445;29;20473;-87
2023/08/24 10:45:56;;;;;;;21.53;20.37;;;28.90;99.90;;;;;;4904889;29;20450;-86
2023/08/24 10:48:29;;;;;;;21.30;20.17;;;29.00;99.90;;;;;;4911166;29;20462;-86
2023/08/24 10:51:26;;;;;;;21.87;20.20;;;29.00;99.90;;;;;;4906430;29;20468;-87
2023/08/24 10:53:58;;;;;;;21.10;19.90;;;29.10;99.90;;;;;;4904741;29;20567;-89
2023/08/24 10:56:35;;;;;;;21.40;20.30;;;29.20;99.90;;;;;;4902960;29;20483;-89
2023/08/24 10:59:17;;;;;;;20.23;19.37;;;29.30;99.90;;;;;;4903517;29;20557;-87
2023/08/24 11:01:56;;;;;;;21.50;20.40;;;29.40;99.90;;;;;;4908655;29;20482;-85
2023/08/24 11:04:34;;;;;;;21.87;20.30;;;29.40;99.90;;;;;;4905725;29;20458;-88
2023/08/24 11:07:08;;;;;;;21.23;19.83;;;29.50;99.90;;;;;;4905984;29;20457;-88
2023/08/24 11:09:47;;;;;;;20.73;19.73;;;29.50;99.90;;;;;;4902163;29;20904;-89
2023/08/24 11:12:18;;;;;;;21.23;20.13;;;29.50;99.90;;;;;;4904485;29;20960;-86
2023/08/24 11:14:58;;;;;;;22.17;20.80;;;29.50;99.90;;;;;;4905337;29;20459;-87
2023/08/24 11:17:32;;;;;;;21.13;19.90;;;29.50;99.90;;;;;;4903478;29;20472;-87
2023/08/24 11:20:08;;;;;;;21.20;19.97;;;29.50;99.90;;;;;;4905552;29;20493;-88
2023/08/24 11:22:39;;;;;;;21.50;20.37;;;29.60;99.90;;;;;;4904865;29;20451;-87
2023/08/24 11:25:14;;;;;;;21.63;20.63;;;29.60;99.90;;;;;;4904014;29;20857;-86
2023/08/24 11:27:46;;;;;;;21.07;19.97;;;29.60;99.90;;;;;;4905334;29;20446;-87
2023/08/24 11:30:19;;;;;;;21.07;19.97;;;29.60;99.90;;;;;;4906997;29;20476;-89
2023/08/24 11:32:54;;;;;;;20.60;19.60;;;29.70;99.90;;;;;;4919686;29;20988;-87
2023/08/24 11:35:23;;;;;;;20.47;19.17;;;29.70;99.90;;;;;;4905171;29;20541;-86
2023/08/24 11:38:00;;;;;;;21.00;20.00;;;29.70;99.90;;;;;;4900911;29;20462;-87
2023/08/24 11:40:34;;;;;;;21.23;20.20;;;29.80;99.90;;;;;;4908523;29;20505;-88
2023/08/24 11:43:03;;;;;;;22.80;21.50;;;29.80;99.90;;;;;;4907289;29;20492;-87
2023/08/24 11:45:38;;;;;;;21.77;20.57;;;29.80;99.90;;;;;;4910933;29;20481;-88
2023/08/24 11:48:17;;;;;;;22.10;20.70;;;29.90;99.90;;;;;;4912608;29;20485;-88
2023/08/24 11:50:49;;;;;;;20.77;19.57;;;30.00;99.90;;;;;;4910462;29;20470;-88
2023/08/24 11:53:25;;;;;;;21.30;20.30;;;30.00;99.90;;;;;;4908748;28;20474;-87
2023/08/24 11:55:55;;;;;;;20.93;19.87;;;30.10;99.90;;;;;;4906286;29;20548;-88
2023/08/24 11:58:39;;;;;;;21.47;19.90;;;30.10;99.90;;;;;;4910482;29;21021;-87
2023/08/24 12:01:08;;;;;;;21.83;20.80;;;30.10;99.90;;;;;;4923787;29;20497;-90
2023/08/24 12:03:46;;;;;;;22.47;21.37;;;30.00;99.90;;;;;;4910355;29;20550;-86
2023/08/24 12:06:18;;;;;;;21.43;20.23;;;30.10;99.90;;;;;;4909664;29;20441;-87
2023/08/24 12:08:50;;;;;;;20.47;19.57;;;30.10;99.90;;;;;;4910859;29;20468;-88
2023/08/24 12:11:26;;;;;;;21.60;20.40;;;30.10;99.90;;;;;;4908445;29;20967;-87
2023/08/24 12:13:58;;;;;;;22.13;20.63;;;30.10;99.90;;;;;;4924895;29;20489;-87
2023/08/24 12:16:33;;;;;;;21.00;19.80;;;30.00;99.90;;;;;;4910348;29;20475;-88
2023/08/24 12:19:10;;;;;;;20.10;19.20;;;30.10;99.90;;;;;;4906436;29;20477;-88
2023/08/24 12:21:46;;;;;;;20.63;19.40;;;30.10;99.90;;;;;;4906829;29;20513;-87
2023/08/24 12:24:19;;;;;;;20.80;19.70;;;30.10;99.90;;;;;;4924516;29;20516;-87
2023/08/24 12:26:57;;;;;;;20.77;19.57;;;30.10;99.90;;;;;;4908125;29;20469;-86
2023/08/24 12:29:26;;;;;;;19.93;19.00;;;30.10;99.90;;;;;;4914389;29;20500;-88
2023/08/24 12:32:02;;;;;;;20.70;19.70;;;30.20;99.90;;;;;;4908737;29;20446;-87
2023/08/24 12:34:31;;;;;;;21.70;20.30;;;30.20;99.90;;;;;;4911509;29;20452;-89
2023/08/24 12:37:12;;;;;;;21.63;20.43;;;30.20;99.90;;;;;;4908580;29;21020;-88
2023/08/24 12:39:50;;;;;;;22.00;20.90;;;30.30;99.90;;;;;;4908271;29;20477;-87
2023/08/24 12:42:19;;;;;;;21.90;20.10;;;30.30;99.90;;;;;;4910353;29;20492;-86
2023/08/24 12:44:50;;;;;;;20.63;19.50;;;30.50;99.90;;;;;;4906607;29;20570;-87
2023/08/24 12:47:28;;;;;;;19.30;18.30;;;30.50;99.90;;;;;;4907036;29;20452;-89
2023/08/24 12:49:57;;;;;;;20.80;19.50;;;30.50;99.90;;;;;;4909057;29;20490;-88
2023/08/24 12:52:33;;;;;;;20.60;19.27;;;30.50;99.90;;;;;;4906900;29;20523;-87
2023/08/24 12:55:07;;;;;;;20.17;19.10;;;30.50;99.90;;;;;;4903950;29;20553;-87